createdAt,value
2022-07-29T00:01:19.736Z,24.90
2022-07-29T00:04:22.240Z,24.90
2022-07-29T00:07:24.222Z,24.80
2022-07-29T00:10:26.262Z,24.40
2022-07-29T00:13:32.201Z,24.50
2022-07-29T00:16:35.034Z,24.60
2022-07-29T00:19:36.534Z,24.70
2022-07-29T00:22:38.288Z,24.60
2022-07-29T00:25:40.519Z,24.70
2022-07-29T00:28:42.169Z,24.70
2022-07-29T00:31:43.740Z,24.60
2022-07-29T00:34:55.528Z,24.90
2022-07-29T00:37:57.167Z,25.00
2022-07-29T00:40:59.250Z,24.60
2022-07-29T00:44:00.708Z,25.00
2022-07-29T00:47:02.359Z,24.80
2022-07-29T00:50:06.549Z,25.40
2022-07-29T00:53:08.725Z,25.00
2022-07-29T00:56:10.928Z,24.50
2022-07-29T00:59:12.546Z,24.80
2022-07-29T01:02:14.112Z,24.90
2022-07-29T01:05:18.315Z,25.20
2022-07-29T01:08:20.853Z,24.80
2022-07-29T01:11:22.874Z,24.60
2022-07-29T01:14:24.555Z,24.80
2022-07-29T01:17:32.842Z,25.30
2022-07-29T01:20:52.313Z,24.70
2022-07-29T01:24:07.331Z,24.70
2022-07-29T01:27:23.534Z,25.10
2022-07-29T01:30:27.501Z,25.10
2022-07-29T01:33:45.583Z,24.80
2022-07-29T01:36:50.963Z,25.00
2022-07-29T01:39:55.923Z,24.90
2022-07-29T01:43:00.436Z,24.80
2022-07-29T01:46:06.077Z,24.70
2022-07-29T01:49:12.582Z,24.70
2022-07-29T01:52:19.745Z,24.80
2022-07-29T01:55:25.589Z,24.70
2022-07-29T01:58:29.199Z,24.70
2022-07-29T02:01:33.007Z,24.50
2022-07-29T02:04:37.392Z,24.50
2022-07-29T02:07:40.898Z,24.80
2022-07-29T02:10:44.080Z,24.70
2022-07-29T02:13:47.549Z,25.10
2022-07-29T02:16:53.588Z,24.90
2022-07-29T02:20:02.008Z,24.70
2022-07-29T02:23:04.916Z,24.80
2022-07-29T02:26:09.307Z,24.90
2022-07-29T02:29:12.775Z,24.80
2022-07-29T02:32:17.214Z,24.70
2022-07-29T02:35:20.337Z,25.30
2022-07-29T02:38:35.611Z,24.80
2022-07-29T02:41:42.756Z,25.00
2022-07-29T02:44:44.570Z,24.90
2022-07-29T02:47:50.003Z,24.80
2022-07-29T02:50:59.824Z,24.60
2022-07-29T02:54:07.094Z,24.70
2022-07-29T02:57:19.382Z,24.50
2022-07-29T03:00:22.547Z,25.10
2022-07-29T03:03:28.831Z,24.50
2022-07-29T03:06:38.424Z,25.00
2022-07-29T03:09:42.195Z,24.40
2022-07-29T03:12:45.133Z,24.80
2022-07-29T03:15:47.586Z,24.70
2022-07-29T03:18:50.270Z,24.80
2022-07-29T03:21:52.259Z,24.60
2022-07-29T03:24:53.709Z,24.50
2022-07-29T03:27:55.224Z,24.70
2022-07-29T03:30:56.874Z,24.50
2022-07-29T03:33:58.948Z,24.80
2022-07-29T03:37:00.399Z,24.70
2022-07-29T03:40:07.896Z,24.80
2022-07-29T03:43:11.738Z,24.60
2022-07-29T03:46:16.433Z,25.00
2022-07-29T03:49:20.338Z,24.50
2022-07-29T03:52:22.298Z,24.50
2022-07-29T03:55:24.627Z,24.80
2022-07-29T03:58:27.617Z,24.70
2022-07-29T04:01:29.803Z,24.70
2022-07-29T04:04:33.991Z,24.90
2022-07-29T04:07:35.505Z,24.80
2022-07-29T04:10:38.264Z,24.70
2022-07-29T04:13:44.146Z,24.60
2022-07-29T04:16:45.584Z,24.60
2022-07-29T04:19:47.579Z,25.10
2022-07-29T04:22:49.206Z,24.40
2022-07-29T04:25:50.646Z,24.90
2022-07-29T04:28:52.086Z,24.40
2022-07-29T04:31:56.704Z,24.60
2022-07-29T04:34:58.701Z,24.90
2022-07-29T04:38:00.203Z,24.90
2022-07-29T04:41:01.675Z,24.30
2022-07-29T04:44:05.590Z,24.60
2022-07-29T04:47:09.330Z,25.10
2022-07-29T04:50:11.767Z,25.00
2022-07-29T04:53:16.550Z,24.80
2022-07-29T04:56:18.050Z,24.90
2022-07-29T04:59:20.259Z,24.50
2022-07-29T05:02:25.248Z,24.70
2022-07-29T05:05:27.279Z,24.50
2022-07-29T05:08:28.768Z,24.90
2022-07-29T05:11:30.647Z,25.70
2022-07-29T05:14:32.338Z,25.10
2022-07-29T05:17:34.072Z,24.30
2022-07-29T05:20:36.226Z,24.90
2022-07-29T05:23:38.007Z,25.10
2022-07-29T05:26:39.917Z,24.90
2022-07-29T05:29:44.539Z,24.80
2022-07-29T05:32:47.499Z,24.70
2022-07-29T05:35:49.478Z,24.90
2022-07-29T05:38:52.246Z,24.50
2022-07-29T05:41:53.708Z,24.70
2022-07-29T05:44:55.436Z,24.70
2022-07-29T05:47:57.354Z,24.50
2022-07-29T05:50:59.403Z,24.60
2022-07-29T05:54:01.923Z,24.70
2022-07-29T05:57:03.684Z,24.70
2022-07-29T06:00:06.255Z,24.80
2022-07-29T06:03:13.973Z,24.60
2022-07-29T06:06:16.107Z,24.60
2022-07-29T06:09:17.712Z,24.80
2022-07-29T06:12:19.923Z,24.70
2022-07-29T06:15:21.513Z,24.80
2022-07-29T06:18:24.170Z,25.20
2022-07-29T06:21:26.207Z,24.50
2022-07-29T06:24:27.864Z,24.80
2022-07-29T06:27:29.873Z,24.70
2022-07-29T06:30:31.410Z,24.80
2022-07-29T06:33:33.711Z,24.60
2022-07-29T06:36:36.490Z,24.90
2022-07-29T06:39:39.388Z,24.60
2022-07-29T06:42:42.899Z,24.60
2022-07-29T06:45:44.592Z,24.80
2022-07-29T06:48:47.582Z,24.80
2022-07-29T06:51:49.786Z,24.70
2022-07-29T06:54:51.428Z,24.80
2022-07-29T06:57:52.946Z,24.90
2022-07-29T07:00:54.730Z,24.90
2022-07-29T07:03:56.735Z,24.80
2022-07-29T07:06:59.686Z,24.90
2022-07-29T07:10:01.247Z,24.70
2022-07-29T07:13:04.457Z,24.70
2022-07-29T07:16:06.136Z,24.70
2022-07-29T07:19:07.635Z,24.80
2022-07-29T07:22:09.827Z,25.00
2022-07-29T07:25:11.853Z,25.00
2022-07-29T07:28:13.433Z,25.10
2022-07-29T07:31:14.933Z,24.80
2022-07-29T07:34:16.932Z,24.90
2022-07-29T07:37:30.824Z,25.10
2022-07-29T07:40:32.516Z,25.00
2022-07-29T07:43:34.151Z,24.70
2022-07-29T07:46:35.791Z,25.20
2022-07-29T07:49:37.452Z,24.90
2022-07-29T07:52:49.101Z,24.80
2022-07-29T07:56:09.897Z,25.40
2022-07-29T07:59:12.390Z,25.10
2022-07-29T08:02:14.078Z,25.30
2022-07-29T08:05:17.330Z,25.30
2022-07-29T08:08:19.462Z,25.20
2022-07-29T08:11:21.419Z,24.80
2022-07-29T08:14:23.099Z,25.20
2022-07-29T08:17:24.788Z,25.30
2022-07-29T08:20:26.561Z,25.00
2022-07-29T08:23:46.010Z,25.20
2022-07-29T08:26:50.464Z,25.20
2022-07-29T08:29:51.978Z,25.10
2022-07-29T08:32:54.820Z,25.20
2022-07-29T08:35:57.357Z,25.20
2022-07-29T08:39:00.036Z,25.00
2022-07-29T08:42:01.799Z,25.40
2022-07-29T08:45:03.535Z,25.40
2022-07-29T08:48:05.447Z,25.30
2022-07-29T08:51:15.154Z,25.40
2022-07-29T08:54:18.906Z,25.30
2022-07-29T08:57:22.385Z,25.20
2022-07-29T09:00:25.612Z,25.10
2022-07-29T09:03:31.689Z,25.10
2022-07-29T09:06:37.422Z,25.00
2022-07-29T09:09:40.174Z,25.30
2022-07-29T09:12:41.924Z,25.30
2022-07-29T09:15:44.022Z,25.50
2022-07-29T09:18:46.916Z,25.30
2022-07-29T09:22:03.980Z,25.10
2022-07-29T09:25:07.287Z,25.30
2022-07-29T09:28:10.058Z,25.10
2022-07-29T09:31:11.898Z,25.30
2022-07-29T09:34:15.621Z,25.30
2022-07-29T09:37:27.272Z,25.30
2022-07-29T09:40:30.085Z,25.60
2022-07-29T09:43:31.640Z,25.30
2022-07-29T09:46:33.560Z,25.30
2022-07-29T09:49:36.310Z,25.60
2022-07-29T09:52:47.469Z,25.30
2022-07-29T09:55:50.484Z,25.40
2022-07-29T09:59:06.209Z,25.00
2022-07-29T10:02:13.109Z,25.40
2022-07-29T10:05:21.373Z,25.40
2022-07-29T10:08:26.458Z,25.60
2022-07-29T10:11:48.109Z,25.40
2022-07-29T10:14:50.867Z,25.40
2022-07-29T10:17:53.446Z,25.50
2022-07-29T10:20:56.297Z,25.30
2022-07-29T10:24:01.754Z,25.30
2022-07-29T10:27:09.892Z,25.70
2022-07-29T10:30:12.667Z,25.30
2022-07-29T10:33:30.267Z,25.80
2022-07-29T10:36:43.280Z,25.40
2022-07-29T10:39:57.185Z,25.30
2022-07-29T10:43:15.434Z,25.40
2022-07-29T10:46:18.652Z,25.20
2022-07-29T10:52:57.599Z,25.40
2022-07-29T10:55:59.166Z,25.20
2022-07-29T10:59:32.485Z,25.70
2022-07-29T11:02:51.449Z,25.20
2022-07-29T11:05:55.639Z,25.10
2022-07-29T11:09:20.004Z,25.30
2022-07-29T11:12:51.885Z,25.50
2022-07-29T11:15:54.244Z,25.30
2022-07-29T11:19:30.089Z,25.50
2022-07-29T11:22:34.830Z,25.10
2022-07-29T11:25:43.035Z,25.30
2022-07-29T11:28:59.900Z,25.30
2022-07-29T11:32:10.391Z,25.40
2022-07-29T11:35:22.312Z,25.60
2022-07-29T11:38:41.653Z,25.30
2022-07-29T11:41:43.241Z,25.50
2022-07-29T11:44:57.409Z,25.70
2022-07-29T11:48:27.580Z,25.40
2022-07-29T11:51:32.832Z,25.40
2022-07-29T11:54:57.117Z,25.50
2022-07-29T12:01:24.356Z,25.60
2022-07-29T12:04:27.159Z,25.30
2022-07-29T12:07:02.364Z,25.20
2022-07-29T12:07:32.548Z,25.50
2022-07-29T12:10:37.613Z,25.80
2022-07-29T12:13:40.119Z,25.50
2022-07-29T12:16:41.756Z,25.50
2022-07-29T12:19:43.713Z,25.40
2022-07-29T12:22:48.815Z,25.50
2022-07-29T12:25:51.414Z,25.00
2022-07-29T12:28:58.854Z,25.50
2022-07-29T12:32:06.596Z,25.50
2022-07-29T12:35:19.456Z,25.50
2022-07-29T12:38:22.177Z,25.40
2022-07-29T12:41:24.984Z,25.30
2022-07-29T12:44:44.503Z,25.40
2022-07-29T12:47:53.632Z,25.40
2022-07-29T12:50:57.489Z,25.50
2022-07-29T12:54:08.537Z,25.60
2022-07-29T12:57:10.821Z,25.40
2022-07-29T13:00:24.323Z,25.40
2022-07-29T13:03:26.001Z,25.50
2022-07-29T13:06:31.783Z,25.20
2022-07-29T13:09:42.461Z,25.50
2022-07-29T13:13:05.859Z,25.50
2022-07-29T13:16:08.262Z,25.20
2022-07-29T13:19:12.488Z,25.50
2022-07-29T13:22:15.353Z,25.40
2022-07-29T13:25:24.948Z,25.10
2022-07-29T13:28:27.138Z,25.20
2022-07-29T13:31:28.858Z,25.30
2022-07-29T13:34:31.231Z,25.50
2022-07-29T13:37:34.237Z,25.50
2022-07-29T13:40:35.777Z,25.70
2022-07-29T13:43:37.827Z,25.50
2022-07-29T13:46:39.526Z,25.50
2022-07-29T13:49:41.907Z,25.40
2022-07-29T13:52:43.467Z,25.60
2022-07-29T13:55:45.270Z,25.40
2022-07-29T13:58:47.395Z,25.50
2022-07-29T14:01:49.042Z,25.50
2022-07-29T14:04:50.891Z,25.50
2022-07-29T14:07:52.407Z,25.50
2022-07-29T14:10:54.033Z,25.40
2022-07-29T14:13:56.023Z,25.60
2022-07-29T14:16:58.602Z,25.50
2022-07-29T14:20:00.242Z,25.50
2022-07-29T14:23:02.563Z,25.30
2022-07-29T14:26:04.423Z,25.50
2022-07-29T14:29:10.892Z,25.20
2022-07-29T14:32:14.569Z,25.40
2022-07-29T14:35:16.311Z,25.40
2022-07-29T14:38:17.771Z,25.80
2022-07-29T14:41:19.320Z,25.60
2022-07-29T14:44:21.380Z,25.40
2022-07-29T14:47:23.490Z,25.80
2022-07-29T14:50:32.017Z,25.80
2022-07-29T14:53:33.949Z,25.60
2022-07-29T14:56:37.251Z,25.50
2022-07-29T14:59:39.679Z,25.40
2022-07-29T15:03:00.871Z,25.10
2022-07-29T15:06:03.068Z,25.60
2022-07-29T15:09:04.732Z,25.40
2022-07-29T15:12:06.867Z,25.40
2022-07-29T15:15:09.187Z,25.30
2022-07-29T15:18:10.836Z,25.50
2022-07-29T15:21:12.436Z,25.40
2022-07-29T15:24:14.016Z,25.30
2022-07-29T15:27:15.555Z,25.90
2022-07-29T15:30:27.891Z,25.40
2022-07-29T15:33:35.754Z,25.90
2022-07-29T15:36:53.582Z,25.60
2022-07-29T15:39:59.876Z,25.40
2022-07-29T15:43:05.643Z,25.50
2022-07-29T15:46:22.400Z,25.40
2022-07-29T15:49:30.564Z,25.20
2022-07-29T15:52:51.124Z,25.30
2022-07-29T15:55:52.675Z,25.50
2022-07-29T15:58:54.112Z,25.30
2022-07-29T16:01:56.792Z,25.20
2022-07-29T16:04:58.368Z,25.40
2022-07-29T16:07:59.873Z,25.50
2022-07-29T16:11:02.161Z,25.70
2022-07-29T16:14:03.641Z,25.90
2022-07-29T16:17:05.750Z,25.30
2022-07-29T16:20:08.543Z,25.10
2022-07-29T16:23:11.573Z,25.50
2022-07-29T16:26:13.141Z,25.30
2022-07-29T16:29:14.649Z,25.30
2022-07-29T16:32:22.353Z,25.40
2022-07-29T16:35:39.769Z,25.30
2022-07-29T16:38:47.372Z,25.50
2022-07-29T16:41:49.048Z,25.90
2022-07-29T16:44:50.498Z,25.50
2022-07-29T16:48:00.244Z,25.60
2022-07-29T16:51:02.729Z,25.90
2022-07-29T16:54:04.420Z,25.60
2022-07-29T16:57:06.078Z,25.60
2022-07-29T17:00:08.446Z,25.60
2022-07-29T17:03:10.538Z,25.60
2022-07-29T17:06:15.006Z,25.30
2022-07-29T17:09:16.550Z,25.80
2022-07-29T17:12:18.962Z,25.50
2022-07-29T17:15:20.645Z,25.60
2022-07-29T17:18:22.766Z,25.60
2022-07-29T17:21:27.026Z,25.50
2022-07-29T17:24:28.686Z,25.90
2022-07-29T17:27:31.639Z,25.30
2022-07-29T17:30:33.084Z,25.60
2022-07-29T17:33:35.584Z,25.50
2022-07-29T17:36:40.112Z,25.50
2022-07-29T17:39:42.341Z,25.60
2022-07-29T17:42:43.822Z,25.90
2022-07-29T17:45:49.914Z,25.80
2022-07-29T17:48:54.798Z,25.60
2022-07-29T17:52:01.155Z,25.60
2022-07-29T17:55:03.040Z,25.60
2022-07-29T17:58:04.652Z,25.60
2022-07-29T18:01:06.450Z,25.80
2022-07-29T18:04:09.048Z,25.50
2022-07-29T18:07:11.140Z,25.40
2022-07-29T18:10:12.653Z,25.80
2022-07-29T18:13:15.539Z,25.70
2022-07-29T18:16:17.424Z,25.50
2022-07-29T18:19:19.482Z,25.70
2022-07-29T18:22:22.166Z,25.90
2022-07-29T18:25:27.948Z,25.70
2022-07-29T18:28:29.508Z,25.80
2022-07-29T18:31:31.069Z,25.70
2022-07-29T18:34:33.196Z,25.70
2022-07-29T18:38:01.842Z,26.00
2022-07-29T18:40:57.937Z,25.70
2022-07-29T18:43:59.405Z,25.50
2022-07-29T18:47:01.342Z,25.80
2022-07-29T18:50:05.364Z,25.70
2022-07-29T18:53:07.204Z,25.70
2022-07-29T18:56:11.745Z,25.50
2022-07-29T18:59:16.066Z,25.60
2022-07-29T19:02:17.724Z,26.00
2022-07-29T19:05:20.564Z,25.80
2022-07-29T19:08:22.145Z,25.70
2022-07-29T19:11:23.642Z,25.70
2022-07-29T19:14:25.064Z,25.50
2022-07-29T19:17:26.508Z,25.70
2022-07-29T19:20:28.722Z,25.60
2022-07-29T19:24:02.402Z,25.40
2022-07-29T19:26:59.597Z,26.00
2022-07-29T19:30:02.648Z,25.70
2022-07-29T19:33:04.112Z,26.00
2022-07-29T19:36:06.811Z,25.60
2022-07-29T19:39:11.750Z,25.50
2022-07-29T19:42:13.250Z,25.70
2022-07-29T19:45:14.800Z,25.60
2022-07-29T19:48:16.398Z,25.10
2022-07-29T19:51:18.568Z,25.60
2022-07-29T19:54:20.235Z,25.60
2022-07-29T19:57:21.947Z,25.80
2022-07-29T20:00:25.813Z,25.50
2022-07-29T20:03:27.341Z,25.60
2022-07-29T20:06:29.417Z,25.50
2022-07-29T20:09:31.101Z,25.40
2022-07-29T20:12:32.746Z,25.30
2022-07-29T20:15:34.306Z,25.30
2022-07-29T20:18:35.925Z,25.30
2022-07-29T20:21:37.996Z,25.30
2022-07-29T20:24:39.536Z,25.40
2022-07-29T20:27:42.854Z,24.90
2022-07-29T20:30:44.507Z,25.70
2022-07-29T20:33:49.069Z,25.30
2022-07-29T20:36:51.142Z,25.30
2022-07-29T20:39:52.733Z,25.20
2022-07-29T20:42:55.107Z,25.10
2022-07-29T20:45:56.621Z,25.20
2022-07-29T20:48:58.315Z,25.40
2022-07-29T20:52:00.433Z,25.50
2022-07-29T20:55:01.959Z,25.00
2022-07-29T20:58:04.042Z,24.90
2022-07-29T21:01:09.102Z,24.90
2022-07-29T21:04:10.811Z,25.00
2022-07-29T21:07:13.028Z,25.00
2022-07-29T21:10:17.361Z,25.10
2022-07-29T21:13:19.704Z,25.20
2022-07-29T21:16:24.631Z,25.00
2022-07-29T21:19:26.095Z,25.30
2022-07-29T21:22:28.160Z,25.10
2022-07-29T21:25:29.619Z,25.00
2022-07-29T21:28:36.252Z,25.20
2022-07-29T21:31:41.790Z,25.10
2022-07-29T21:34:43.330Z,25.20
2022-07-29T21:37:45.360Z,25.20
2022-07-29T21:40:49.857Z,24.80
2022-07-29T21:43:51.408Z,25.10
2022-07-29T21:46:52.994Z,25.30
2022-07-29T21:49:54.497Z,25.10
2022-07-29T21:52:56.508Z,24.80
2022-07-29T21:55:58.037Z,25.50
2022-07-29T21:59:01.170Z,25.00
2022-07-29T22:02:06.067Z,24.80
2022-07-29T22:05:08.337Z,25.00
2022-07-29T22:08:10.900Z,25.00
2022-07-29T22:11:18.092Z,24.50
2022-07-29T22:14:21.841Z,25.40
2022-07-29T22:17:23.634Z,25.30
2022-07-29T22:20:25.933Z,25.00
2022-07-29T22:23:28.014Z,25.00
2022-07-29T22:26:29.568Z,24.70
2022-07-29T22:29:31.124Z,25.10
2022-07-29T22:32:32.793Z,25.00
2022-07-29T22:35:34.292Z,24.70
2022-07-29T22:38:36.524Z,24.90
2022-07-29T22:41:38.172Z,25.20
2022-07-29T22:44:39.672Z,25.00
2022-07-29T22:47:47.893Z,25.10
2022-07-29T22:50:50.013Z,24.70
2022-07-29T22:53:52.304Z,24.50
2022-07-29T22:56:53.774Z,25.10
2022-07-29T22:59:58.361Z,25.10
2022-07-29T23:03:00.131Z,24.90
2022-07-29T23:06:01.588Z,24.90
2022-07-29T23:09:03.978Z,25.30
2022-07-29T23:12:06.123Z,24.90
2022-07-29T23:15:07.952Z,25.20
2022-07-29T23:18:09.528Z,25.20
2022-07-29T23:21:11.173Z,25.40
2022-07-29T23:24:13.388Z,24.70
2022-07-29T23:27:14.947Z,25.10
2022-07-29T23:30:16.539Z,25.00
2022-07-29T23:33:18.131Z,24.90
2022-07-29T23:36:20.098Z,24.90
2022-07-29T23:39:22.305Z,24.50
2022-07-29T23:42:27.286Z,24.90
2022-07-29T23:45:40.667Z,24.90
2022-07-29T23:48:46.094Z,24.50
2022-07-29T23:51:47.544Z,24.90
2022-07-29T23:54:49.624Z,24.90
2022-07-29T23:57:51.115Z,24.70
